Time;durP1;ratioP1;P1;durP2;ratioP2;P2;SDS_P1;SDS_P2;PMS_P1;PMS_P2;Temp;Humidity;BMP_temperature;BMP_pressure;BME280_temperature;BME280_humidity;BME280_pressure;Samples;Min_cycle;Max_cycle;Signal;HPM_P1;HPM_P2
2022/06/23 00:01:34;;;;;;;4.80;2.08;;;19.50;59.00;;;;;;4991258;28;20018;-66
2022/06/23 00:03:59;;;;;;;5.13;2.17;;;19.50;59.50;;;;;;4990718;28;20141;-66
2022/06/23 00:06:36;;;;;;;6.18;2.10;;;19.40;60.10;;;;;;4994301;28;20153;-66
2022/06/23 00:09:18;;;;;;;7.60;1.65;;;19.50;60.00;;;;;;4994488;28;20031;-66
2022/06/23 00:11:48;;;;;;;4.97;2.00;;;19.40;59.80;;;;;;5026026;28;20485;-66
2022/06/23 00:14:13;;;;;;;5.47;2.25;;;19.30;61.00;;;;;;4994404;28;20030;-66
2022/06/23 00:16:39;;;;;;;4.15;2.15;;;19.30;61.10;;;;;;5000492;28;20671;-66
2022/06/23 00:19:07;;;;;;;5.30;2.50;;;19.30;61.90;;;;;;5013861;28;20033;-66
2022/06/23 00:21:33;;;;;;;2.30;1.83;;;19.30;61.90;;;;;;5013666;28;20105;-66
2022/06/23 00:24:00;;;;;;;5.22;2.42;;;19.30;61.40;;;;;;5012483;28;20431;-67
2022/06/23 00:26:28;;;;;;;6.90;1.80;;;19.30;62.00;;;;;;4994164;28;20041;-67
2022/06/23 00:29:05;;;;;;;5.75;1.80;;;19.50;61.00;;;;;;5025788;28;20030;-67
2022/06/23 00:31:34;;;;;;;4.20;2.00;;;19.30;61.60;;;;;;5025645;28;20489;-67
2022/06/23 00:34:01;;;;;;;4.50;2.00;;;19.50;60.80;;;;;;5025630;28;20434;-66
2022/06/23 00:36:29;;;;;;;7.03;2.05;;;19.30;62.10;;;;;;5025149;28;20057;-66
2022/06/23 00:38:55;;;;;;;4.22;1.98;;;19.20;63.30;;;;;;4993994;28;20109;-66
2022/06/23 00:41:22;;;;;;;4.28;1.83;;;18.90;65.00;;;;;;4993816;28;20109;-66
2022/06/23 00:43:49;;;;;;;5.82;2.60;;;18.80;64.90;;;;;;4993761;28;20578;-66
2022/06/23 00:46:28;;;;;;;11.77;2.88;;;18.60;67.60;;;;;;5024914;28;20028;-66
2022/06/23 00:48:57;;;;;;;5.75;2.35;;;18.50;68.70;;;;;;5008805;28;20478;-66
2022/06/23 00:51:38;;;;;;;5.53;2.28;;;18.20;70.10;;;;;;5008382;28;20029;-67
2022/06/23 00:54:10;;;;;;;5.10;2.40;;;18.20;73.70;;;;;;5007776;28;20030;-67
2022/06/23 00:57:04;;;;;;;4.78;2.22;;;18.10;76.30;;;;;;5007895;28;20034;-68
2022/06/23 00:59:38;;;;;;;3.63;2.50;;;17.90;78.50;;;;;;5007470;28;20049;-67
2022/06/23 01:02:12;;;;;;;6.80;2.75;;;17.90;81.10;;;;;;5007988;28;20050;-68
2022/06/23 01:04:47;;;;;;;9.10;3.00;;;17.70;84.90;;;;;;5007903;28;20046;-68
2022/06/23 01:07:40;;;;;;;8.88;3.05;;;17.70;86.00;;;;;;5025029;28;20482;-68
2022/06/23 01:10:29;;;;;;;7.68;2.97;;;17.70;86.60;;;;;;5021312;28;20034;-67
2022/06/23 01:12:58;;;;;;;10.50;3.38;;;17.60;89.70;;;;;;5023560;28;20018;-67
2022/06/23 01:15:37;;;;;;;11.73;3.60;;;17.50;90.40;;;;;;5024779;28;20022;-67
2022/06/23 01:18:04;;;;;;;8.32;3.38;;;17.60;90.80;;;;;;5024154;28;20042;-66
2022/06/23 01:20:39;;;;;;;10.95;3.25;;;17.50;91.30;;;;;;5024318;28;20034;-66
2022/06/23 01:23:09;;;;;;;11.98;3.75;;;17.40;91.70;;;;;;5010175;28;20026;-68
2022/06/23 01:25:43;;;;;;;6.40;3.35;;;17.30;92.30;;;;;;5006413;28;20040;-69
2022/06/23 01:28:19;;;;;;;6.28;3.10;;;17.40;92.30;;;;;;5003213;28;20029;-68
2022/06/23 01:31:05;;;;;;;16.40;4.88;;;17.30;92.90;;;;;;5011737;28;20026;-67
2022/06/23 01:33:56;;;;;;;6.03;2.75;;;17.10;93.00;;;;;;5011709;28;20438;-67
2022/06/23 01:36:43;;;;;;;12.50;3.20;;;17.10;93.80;;;;;;4995614;28;20076;-68
2022/06/23 01:39:20;;;;;;;9.95;3.67;;;17.20;93.90;;;;;;5009099;28;20038;-67
2022/06/23 01:41:57;;;;;;;17.00;4.50;;;17.10;94.00;;;;;;5010137;28;20026;-67
2022/06/23 01:44:46;;;;;;;4.25;2.90;;;17.00;94.30;;;;;;5011494;28;20022;-66
2022/06/23 01:47:39;;;;;;;6.75;3.25;;;17.00;94.50;;;;;;5011642;28;20037;-66
2022/06/23 01:50:13;;;;;;;7.78;3.10;;;16.90;95.40;;;;;;4973719;28;20019;-66
2022/06/23 01:52:44;;;;;;;6.40;2.95;;;16.90;95.30;;;;;;4973649;28;20023;-66
2022/06/23 01:55:22;;;;;;;15.02;4.82;;;16.90;95.50;;;;;;4973722;28;20034;-67
2022/06/23 01:57:55;;;;;;;9.68;3.42;;;16.80;95.30;;;;;;4972622;28;20067;-66
2022/06/23 02:00:21;;;;;;;4.68;2.70;;;16.70;95.80;;;;;;5004306;28;20027;-66
2022/06/23 02:03:09;;;;;;;6.57;2.67;;;16.70;96.20;;;;;;4972256;28;20030;-66
2022/06/23 02:05:45;;;;;;;4.60;2.70;;;16.60;96.40;;;;;;4990170;28;20031;-67
2022/06/23 02:08:40;;;;;;;6.85;3.30;;;16.60;96.90;;;;;;4989921;28;20019;-67
2022/06/23 02:11:15;;;;;;;;;;;16.50;97.10;;;;;;4974136;28;20046;-67
2022/06/23 02:13:50;;;;;;;4.88;3.03;;;16.50;96.90;;;;;;5009861;28;19917;-67
2022/06/23 02:16:26;;;;;;;5.45;3.10;;;16.50;97.20;;;;;;5011523;28;20105;-67
2022/06/23 02:19:08;;;;;;;6.03;3.15;;;16.50;97.20;;;;;;5003296;28;20105;-67
2022/06/23 02:21:39;;;;;;;9.57;3.40;;;16.40;97.30;;;;;;4992814;28;20038;-67
2022/06/23 02:24:21;;;;;;;5.00;2.83;;;16.30;97.70;;;;;;4992882;28;20495;-67
2022/06/23 02:27:15;;;;;;;11.05;3.25;;;16.30;98.00;;;;;;5024146;28;20442;-67
2022/06/23 02:29:55;;;;;;;16.05;4.28;;;16.30;97.70;;;;;;4996171;28;20107;-67
2022/06/23 02:32:48;;;;;;;5.18;3.10;;;16.20;98.00;;;;;;5025184;28;20558;-67
2022/06/23 02:35:21;;;;;;;7.40;3.47;;;16.30;98.10;;;;;;5010670;28;20495;-67
2022/06/23 02:37:57;;;;;;;10.75;3.70;;;16.30;98.10;;;;;;5010512;28;20398;-67
2022/06/23 02:40:37;;;;;;;10.85;4.32;;;16.20;98.20;;;;;;5010353;28;20057;-67
2022/06/23 02:43:08;;;;;;;10.20;4.30;;;16.10;98.40;;;;;;4996144;28;20120;-67
2022/06/23 02:45:59;;;;;;;9.07;3.90;;;16.10;98.40;;;;;;4996968;28;20517;-67
2022/06/23 02:48:43;;;;;;;8.82;3.78;;;16.20;98.60;;;;;;4996073;28;20073;-67
2022/06/23 02:51:36;;;;;;;10.57;3.35;;;16.20;98.50;;;;;;4995958;28;20592;-67
2022/06/23 02:54:20;;;;;;;8.30;3.53;;;16.10;98.20;;;;;;5008711;28;20041;-67
2022/06/23 02:57:19;;;;;;;9.18;4.07;;;16.20;98.50;;;;;;5023543;28;20030;-66
2022/06/23 03:00:26;;;;;;;10.15;3.55;;;16.10;98.60;;;;;;4995720;28;20038;-67
2022/06/23 03:03:15;;;;;;;20.50;5.43;;;16.00;98.70;;;;;;5000194;28;20128;-69
2022/06/23 03:05:49;;;;;;;18.95;4.65;;;16.00;99.20;;;;;;4996518;28;20034;-68
2022/06/23 03:08:26;;;;;;;11.37;5.20;;;15.90;99.10;;;;;;4995702;28;20029;-68
2022/06/23 03:11:07;;;;;;;13.55;4.85;;;15.90;99.30;;;;;;5027102;28;20120;-68
2022/06/23 03:13:51;;;;;;;18.25;5.55;;;15.90;99.20;;;;;;4995502;28;20030;-68
2022/06/23 03:16:17;;;;;;;12.00;4.10;;;15.90;99.40;;;;;;5026887;28;20026;-67
2022/06/23 03:18:48;;;;;;;16.83;5.40;;;15.90;99.50;;;;;;4995403;28;20519;-66
2022/06/23 03:21:28;;;;;;;18.08;5.55;;;15.80;99.70;;;;;;4995478;28;20036;-67
2022/06/23 03:24:06;;;;;;;19.52;4.97;;;15.80;99.70;;;;;;4994198;28;20181;-67
2022/06/23 03:26:44;;;;;;;10.98;4.85;;;15.80;99.50;;;;;;5002777;28;20072;-67
2022/06/23 03:29:20;;;;;;;20.75;4.95;;;15.80;99.90;;;;;;5014752;28;20470;-67
2022/06/23 03:32:11;;;;;;;14.05;5.70;;;15.90;99.90;;;;;;5013571;28;20092;-67
2022/06/23 03:34:49;;;;;;;17.95;5.45;;;15.80;99.90;;;;;;5007424;28;20034;-67
2022/06/23 03:37:16;;;;;;;14.50;5.43;;;15.70;99.90;;;;;;5026809;28;20038;-67
2022/06/23 03:42:46;;;;;;;16.08;5.90;;;15.60;99.90;;;;;;4995404;28;20445;-68
2022/06/23 03:45:22;;;;;;;14.20;5.53;;;15.70;99.90;;;;;;5010006;28;20109;-67
2022/06/23 03:48:06;;;;;;;16.40;6.10;;;15.80;99.90;;;;;;5026456;28;20030;-67
2022/06/23 03:50:35;;;;;;;11.35;5.50;;;15.80;99.90;;;;;;5007832;28;20149;-67
2022/06/23 03:53:09;;;;;;;13.40;6.22;;;15.80;99.90;;;;;;5009482;28;20094;-67
2022/06/23 03:55:40;;;;;;;13.57;5.60;;;15.80;99.90;;;;;;5008808;28;20034;-67
2022/06/23 03:58:22;;;;;;;23.15;6.45;;;15.90;99.90;;;;;;5009824;28;20026;-67
2022/06/23 04:01:16;;;;;;;16.15;6.03;;;15.90;99.90;;;;;;5010149;28;20058;-68
2022/06/23 04:03:46;;;;;;;28.73;7.68;;;16.00;99.90;;;;;;5012706;28;20080;-68
2022/06/23 04:06:31;;;;;;;31.08;7.88;;;16.00;99.90;;;;;;5013022;28;20022;-68
2022/06/23 04:09:04;;;;;;;23.20;8.25;;;16.10;99.90;;;;;;5014088;28;20471;-68
2022/06/23 04:11:44;;;;;;;15.63;4.90;;;16.20;99.90;;;;;;5011222;28;20107;-68
2022/06/23 04:14:16;;;;;;;19.83;6.72;;;16.40;99.90;;;;;;5014094;28;20050;-68
2022/06/23 04:16:41;;;;;;;11.73;5.07;;;16.80;99.70;;;;;;5012653;28;20030;-68
2022/06/23 04:19:25;;;;;;;19.83;6.90;;;17.10;98.60;;;;;;5012832;28;20381;-68
2022/06/23 04:21:57;;;;;;;14.88;4.13;;;17.30;98.60;;;;;;4990491;28;20034;-68
2022/06/23 04:24:24;;;;;;;8.93;5.00;;;17.80;97.00;;;;;;4977955;28;20033;-68
2022/06/23 04:26:51;;;;;;;8.68;4.53;;;18.50;94.60;;;;;;5025512;28;20077;-68
2022/06/23 04:29:17;;;;;;;9.55;3.85;;;19.50;91.40;;;;;;4994255;28;20061;-67
2022/06/23 04:31:49;;;;;;;10.43;3.63;;;19.90;88.80;;;;;;4994984;28;20035;-67
2022/06/23 04:34:22;;;;;;;9.88;4.30;;;20.40;83.20;;;;;;5008812;28;20114;-67
2022/06/23 04:36:48;;;;;;;11.18;3.78;;;20.30;82.80;;;;;;5024329;28;20031;-68
2022/06/23 04:39:18;;;;;;;6.95;3.67;;;20.70;79.80;;;;;;4992752;28;20037;-67
2022/06/23 04:41:46;;;;;;;9.07;2.80;;;20.60;78.40;;;;;;4992614;28;20092;-69
2022/06/23 04:44:29;;;;;;;13.68;3.90;;;20.80;76.90;;;;;;4997296;28;20040;-68
2022/06/23 04:47:01;;;;;;;10.50;3.85;;;20.80;77.20;;;;;;5012184;28;20453;-67
2022/06/23 04:49:36;;;;;;;5.88;2.80;;;20.60;78.50;;;;;;5012305;28;20054;-67
2022/06/23 04:52:28;;;;;;;4.95;2.88;;;20.70;77.40;;;;;;5003256;28;20390;-67
2022/06/23 04:55:17;;;;;;;8.90;3.28;;;20.50;77.80;;;;;;5011482;28;20038;-68
2022/06/23 04:57:57;;;;;;;5.95;2.92;;;20.40;79.00;;;;;;5012087;28;20068;-68
2022/06/23 05:00:24;;;;;;;5.30;3.10;;;20.40;78.60;;;;;;5012146;28;20084;-69
2022/06/23 05:02:55;;;;;;;4.72;2.38;;;20.30;78.80;;;;;;5010087;28;20558;-69
2022/06/23 05:05:32;;;;;;;6.25;2.80;;;20.70;77.70;;;;;;5011862;28;20053;-68
2022/06/23 05:08:01;;;;;;;6.57;2.58;;;21.20;73.70;;;;;;5011882;28;20638;-68
2022/06/23 05:10:37;;;;;;;3.88;2.45;;;21.60;70.70;;;;;;5007831;28;20027;-68
2022/06/23 05:13:05;;;;;;;5.80;3.03;;;21.50;70.10;;;;;;5011995;28;20026;-68
2022/06/23 05:15:35;;;;;;;7.43;2.63;;;21.70;70.30;;;;;;5011891;28;20069;-68
2022/06/23 05:18:05;;;;;;;4.70;2.70;;;21.70;70.30;;;;;;4994117;28;20030;-68
2022/06/23 05:20:41;;;;;;;9.00;2.55;;;21.80;70.20;;;;;;5008014;28;20041;-67
2022/06/23 05:23:29;;;;;;;4.53;2.30;;;21.80;69.80;;;;;;4993383;28;20042;-68
2022/06/23 05:25:56;;;;;;;3.78;2.47;;;21.90;69.70;;;;;;5024778;28;20030;-68
2022/06/23 05:28:24;;;;;;;6.55;3.00;;;22.20;68.50;;;;;;5001603;28;20112;-69
2022/06/23 05:30:56;;;;;;;5.85;3.08;;;22.20;68.30;;;;;;5011634;28;20034;-68
2022/06/23 05:33:24;;;;;;;5.35;2.60;;;22.10;69.00;;;;;;4993934;28;20037;-69
2022/06/23 05:35:51;;;;;;;6.35;2.80;;;22.10;70.30;;;;;;5023564;28;20410;-68
2022/06/23 05:38:25;;;;;;;3.17;2.88;;;22.20;68.90;;;;;;4992140;28;20041;-68
2022/06/23 05:40:58;;;;;;;12.23;4.47;;;22.50;66.80;;;;;;4993192;28;20035;-68
2022/06/23 05:43:24;;;;;;;5.03;3.13;;;23.00;66.40;;;;;;5025141;28;20030;-69
2022/06/23 05:45:53;;;;;;;6.65;2.90;;;23.40;64.40;;;;;;5004723;28;20033;-69
2022/06/23 05:48:27;;;;;;;6.70;3.13;;;23.60;63.40;;;;;;5008185;28;20030;-68
2022/06/23 05:51:04;;;;;;;4.88;2.70;;;24.00;61.10;;;;;;5007413;28;20395;-68
2022/06/23 05:53:34;;;;;;;6.85;2.40;;;24.00;61.10;;;;;;4992055;28;20065;-67
2022/06/23 05:56:17;;;;;;;9.98;2.72;;;23.90;61.20;;;;;;4993235;28;20042;-67
2022/06/23 05:58:58;;;;;;;5.43;2.70;;;24.10;60.90;;;;;;4993083;28;20050;-68
2022/06/23 06:01:49;;;;;;;5.72;2.58;;;24.60;59.70;;;;;;4991978;28;20061;-68
2022/06/23 06:04:35;;;;;;;11.02;2.90;;;25.00;58.30;;;;;;4994862;28;20503;-67
2022/06/23 06:07:02;;;;;;;6.78;2.45;;;24.70;59.20;;;;;;4997171;28;20068;-67
2022/06/23 06:09:38;;;;;;;10.02;2.83;;;25.00;58.50;;;;;;4995750;28;20026;-66
2022/06/23 06:12:15;;;;;;;6.43;3.42;;;25.40;57.70;;;;;;5010279;28;20030;-66
2022/06/23 06:14:52;;;;;;;11.63;2.85;;;25.20;58.10;;;;;;5011333;28;20037;-66
2022/06/23 06:17:22;;;;;;;6.65;2.95;;;25.40;57.00;;;;;;5005904;28;20486;-66
2022/06/23 06:19:48;;;;;;;7.93;2.92;;;25.40;57.30;;;;;;5002870;28;20053;-66
2022/06/23 06:22:42;;;;;;;9.75;3.22;;;25.60;57.20;;;;;;5010567;28;20038;-66
2022/06/23 06:25:09;;;;;;;5.78;3.20;;;25.80;57.00;;;;;;4996395;28;20031;-65
2022/06/23 06:27:35;;;;;;;6.47;3.25;;;26.20;55.80;;;;;;5025435;28;20041;-67
2022/06/23 06:30:00;;;;;;;9.75;3.80;;;26.10;56.30;;;;;;5011285;28;20126;-67
2022/06/23 06:32:34;;;;;;;8.15;3.10;;;26.10;57.40;;;;;;5027645;28;20483;-67
2022/06/23 06:35:07;;;;;;;4.72;3.22;;;26.60;56.40;;;;;;4997958;28;20387;-67
2022/06/23 06:37:35;;;;;;;15.32;3.67;;;26.80;55.90;;;;;;4994551;28;20044;-68
2022/06/23 06:40:03;;;;;;;10.77;3.33;;;26.80;56.40;;;;;;5027328;28;20109;-66
2022/06/23 06:42:32;;;;;;;7.45;3.20;;;26.90;56.30;;;;;;5010950;28;20026;-68
2022/06/23 06:44:59;;;;;;;8.93;2.90;;;27.00;56.40;;;;;;4995844;28;20045;-66
2022/06/23 06:47:27;;;;;;;11.05;3.25;;;27.80;55.00;;;;;;5007569;28;20040;-67
2022/06/23 06:49:53;;;;;;;9.40;3.33;;;28.30;54.00;;;;;;5014154;28;20069;-68
2022/06/23 06:52:19;;;;;;;6.38;3.28;;;28.80;52.40;;;;;;5010464;28;20483;-69
2022/06/23 06:54:52;;;;;;;11.10;3.60;;;30.00;50.60;;;;;;4996183;28;20045;-68
2022/06/23 06:57:30;;;;;;;12.98;3.25;;;30.30;50.10;;;;;;4991806;28;20027;-68
2022/06/23 07:00:05;;;;;;;6.50;3.70;;;30.10;50.00;;;;;;4975101;28;20039;-68
2022/06/23 07:02:36;;;;;;;6.20;3.17;;;29.30;51.30;;;;;;4976111;28;20387;-69
2022/06/23 07:05:26;;;;;;;8.70;3.42;;;29.30;52.20;;;;;;4992808;28;20073;-68
2022/06/23 07:07:58;;;;;;;8.90;3.42;;;29.60;51.10;;;;;;5014732;28;20018;-67
2022/06/23 07:10:31;;;;;;;12.57;5.53;;;30.10;51.20;;;;;;5008651;28;20528;-68
2022/06/23 07:13:00;;;;;;;14.40;6.03;;;29.10;52.80;;;;;;4997468;28;20077;-67
2022/06/23 07:15:43;;;;;;;11.88;6.05;;;28.40;55.30;;;;;;5026610;28;20042;-66
2022/06/23 07:18:20;;;;;;;10.10;5.43;;;28.40;54.60;;;;;;5025106;28;20082;-66
2022/06/23 07:21:09;;;;;;;12.70;4.72;;;29.00;53.90;;;;;;4994421;28;20038;-67
2022/06/23 07:24:01;;;;;;;11.55;3.72;;;29.30;53.30;;;;;;4995438;28;20034;-66
2022/06/23 07:26:38;;;;;;;11.18;4.57;;;29.40;52.20;;;;;;4985349;28;20376;-67
2022/06/23 07:29:20;;;;;;;11.32;4.70;;;30.20;51.70;;;;;;5007145;28;20061;-67
2022/06/23 07:32:02;;;;;;;7.57;3.60;;;30.10;51.10;;;;;;4975623;28;20080;-67
2022/06/23 07:34:30;;;;;;;9.45;3.22;;;29.80;52.40;;;;;;4984391;28;20113;-66
2022/06/23 07:36:57;;;;;;;12.82;3.47;;;30.50;51.10;;;;;;4999996;28;20534;-67
2022/06/23 07:39:29;;;;;;;7.10;3.20;;;30.30;50.40;;;;;;5025909;28;20118;-68
2022/06/23 07:42:19;;;;;;;10.52;3.35;;;30.10;50.70;;;;;;4997181;28;20037;-68
2022/06/23 07:44:50;;;;;;;6.18;3.15;;;31.20;49.40;;;;;;5011149;28;20034;-68
2022/06/23 07:47:19;;;;;;;8.43;3.08;;;31.50;49.80;;;;;;5011633;28;20052;-68
2022/06/23 07:49:45;;;;;;;9.32;3.53;;;30.90;49.50;;;;;;4996249;28;20034;-67
2022/06/23 07:52:26;;;;;;;7.43;3.60;;;31.10;49.90;;;;;;5005423;28;20556;-67
2022/06/23 07:54:55;;;;;;;9.65;3.80;;;31.30;49.70;;;;;;4988042;28;20092;-67
2022/06/23 07:57:20;;;;;;;10.75;4.40;;;31.00;50.20;;;;;;5009876;28;20443;-66
2022/06/23 07:59:58;;;;;;;9.75;3.40;;;31.30;50.50;;;;;;5006775;28;20050;-68
2022/06/23 08:02:41;;;;;;;7.00;3.88;;;31.60;49.40;;;;;;4995461;28;20026;-68
2022/06/23 08:05:34;;;;;;;5.95;3.35;;;31.60;49.90;;;;;;4997887;28;20038;-67
2022/06/23 08:08:00;;;;;;;11.52;3.65;;;31.60;49.50;;;;;;5009340;28;20041;-68
2022/06/23 08:10:28;;;;;;;7.40;3.72;;;31.50;49.60;;;;;;5009675;28;20034;-68
2022/06/23 08:13:08;;;;;;;9.38;3.83;;;32.80;49.10;;;;;;5005991;28;20029;-68
2022/06/23 08:18:47;;;;;;;10.55;3.55;;;33.90;48.50;;;;;;5020128;28;20038;-67
2022/06/23 08:21:18;;;;;;;12.35;3.92;;;32.70;48.40;;;;;;5011292;28;20034;-68
2022/06/23 08:23:52;;;;;;;6.88;4.00;;;33.70;47.50;;;;;;5004208;28;20034;-68
2022/06/23 08:26:18;;;;;;;13.55;4.65;;;33.90;48.20;;;;;;5011200;28;20471;-68
2022/06/23 08:28:44;;;;;;;8.75;4.30;;;34.20;46.20;;;;;;5001525;28;20034;-68
2022/06/23 08:31:10;;;;;;;10.98;4.07;;;34.60;46.00;;;;;;4999177;28;20064;-68
2022/06/23 08:33:35;;;;;;;7.88;4.18;;;34.00;46.80;;;;;;5000756;28;20091;-68
2022/06/23 08:36:11;;;;;;;9.07;3.90;;;33.60;46.20;;;;;;5024226;28;20498;-68
2022/06/23 08:42:04;;;;;;;7.95;3.70;;;34.30;46.00;;;;;;5006203;28;20046;-68
2022/06/23 08:44:44;;;;;;;7.65;3.85;;;33.40;47.60;;;;;;5020140;28;20041;-68
2022/06/23 08:47:22;;;;;;;6.55;3.35;;;33.90;46.90;;;;;;5021499;28;20101;-68
2022/06/23 08:50:13;;;;;;;8.25;4.25;;;34.80;45.60;;;;;;4992743;28;20502;-68
2022/06/23 08:52:44;;;;;;;7.55;4.22;;;34.00;47.20;;;;;;5019876;28;20073;-68
2022/06/23 08:55:33;;;;;;;4.82;3.35;;;34.00;47.00;;;;;;5024581;28;20072;-68
2022/06/23 08:58:05;;;;;;;8.50;3.45;;;34.80;46.50;;;;;;4991563;28;20038;-68
2022/06/23 09:00:58;;;;;;;15.10;5.25;;;33.70;45.70;;;;;;4991842;28;20018;-68
2022/06/23 09:03:56;;;;;;;9.85;4.30;;;33.40;46.00;;;;;;4990679;28;20567;-70
2022/06/23 09:06:34;;;;;;;9.80;4.10;;;34.30;45.20;;;;;;5009017;28;20125;-67
2022/06/23 09:09:20;;;;;;;10.75;4.30;;;34.50;45.10;;;;;;5012295;28;20493;-67
2022/06/23 09:12:06;;;;;;;10.52;4.13;;;34.20;44.50;;;;;;5012221;28;20033;-67
2022/06/23 09:14:40;;;;;;;11.40;5.53;;;33.50;46.40;;;;;;5012470;28;20120;-67
2022/06/23 09:17:21;;;;;;;6.55;3.88;;;32.90;46.10;;;;;;5011139;28;20114;-67
2022/06/23 09:20:11;;;;;;;11.75;5.43;;;33.50;45.00;;;;;;5011299;28;20026;-66
2022/06/23 09:23:00;;;;;;;10.57;5.80;;;32.70;46.70;;;;;;5012398;28;20026;-67
2022/06/23 09:25:32;;;;;;;7.18;3.85;;;32.10;47.50;;;;;;5006864;28;20080;-67
2022/06/23 09:28:22;;;;;;;8.55;3.90;;;33.70;45.50;;;;;;4992374;28;20034;-67
2022/06/23 09:31:06;;;;;;;10.40;4.75;;;32.70;46.50;;;;;;4991340;28;20483;-67
2022/06/23 09:34:09;;;;;;;5.72;4.55;;;32.80;45.50;;;;;;4992643;28;20035;-67
2022/06/23 09:36:49;;;;;;;7.93;4.57;;;32.60;44.70;;;;;;4993217;28;20570;-67
2022/06/23 09:39:53;;;;;;;8.02;4.70;;;32.30;46.30;;;;;;4996635;28;20073;-66
2022/06/23 09:42:50;;;;;;;14.40;6.38;;;32.70;45.80;;;;;;4995653;28;20114;-66
2022/06/23 09:45:52;;;;;;;10.80;6.15;;;32.00;46.10;;;;;;4995363;28;20040;-66
2022/06/23 09:48:27;;;;;;;8.15;5.32;;;32.30;45.70;;;;;;4995331;28;20483;-66
2022/06/23 09:51:14;;;;;;;9.82;4.53;;;32.50;45.70;;;;;;4996135;28;20023;-66
2022/06/23 09:54:03;;;;;;;12.45;4.30;;;32.90;44.60;;;;;;4995023;28;20498;-66
2022/06/23 09:56:47;;;;;;;7.10;4.03;;;33.80;44.60;;;;;;4995043;28;20399;-66
2022/06/23 09:59:18;;;;;;;9.48;5.15;;;34.30;43.40;;;;;;4995126;28;20037;-67
2022/06/23 10:01:51;;;;;;;7.32;3.92;;;33.00;44.90;;;;;;4995879;28;20026;-66
2022/06/23 10:04:36;;;;;;;7.97;3.90;;;33.50;44.10;;;;;;4994737;28;20047;-67
2022/06/23 10:07:11;;;;;;;7.30;4.28;;;33.50;44.80;;;;;;4996017;28;20023;-67
2022/06/23 10:09:55;;;;;;;6.20;3.45;;;35.60;43.70;;;;;;4996287;28;20080;-67
2022/06/23 10:13:00;;;;;;;8.70;3.88;;;35.40;42.50;;;;;;4995144;28;20054;-68
2022/06/23 10:15:44;;;;;;;7.60;4.10;;;34.20;43.40;;;;;;4991420;28;20066;-68
2022/06/23 10:18:33;;;;;;;9.68;4.15;;;34.90;43.00;;;;;;4993287;28;20276;-68
2022/06/23 10:21:25;;;;;;;5.60;3.45;;;35.20;43.50;;;;;;4994606;28;20026;-68
2022/06/23 10:24:17;;;;;;;9.07;3.50;;;35.80;42.00;;;;;;4994736;28;20037;-68
2022/06/23 10:26:54;;;;;;;8.77;4.25;;;35.50;42.50;;;;;;4995922;28;20030;-68
2022/06/23 10:29:49;;;;;;;6.50;3.50;;;36.00;41.70;;;;;;4992520;28;20031;-68
2022/06/23 10:32:17;;;;;;;;;;;36.20;41.20;;;;;;4975971;28;20027;-68
2022/06/23 10:34:53;;;;;;;5.80;4.32;;;36.40;41.90;;;;;;4989184;28;20524;-68
2022/06/23 10:37:35;;;;;;;9.70;4.18;;;35.50;42.60;;;;;;5009958;28;20038;-68
2022/06/23 10:40:25;;;;;;;8.05;4.05;;;36.00;42.10;;;;;;4995287;28;20034;-67
2022/06/23 10:42:59;;;;;;;10.75;5.80;;;35.40;42.10;;;;;;4995771;28;20035;-68
2022/06/23 10:45:38;;;;;;;7.97;4.00;;;34.80;43.30;;;;;;5026109;28;20045;-68
2022/06/23 10:48:27;;;;;;;4.97;3.33;;;35.70;42.20;;;;;;5026298;28;20034;-68
2022/06/23 10:51:11;;;;;;;7.43;4.65;;;37.00;41.60;;;;;;4995616;28;20033;-68
2022/06/23 10:53:42;;;;;;;12.60;4.90;;;34.10;43.40;;;;;;5025220;28;20076;-68
2022/06/23 10:56:26;;;;;;;8.80;4.03;;;34.00;43.20;;;;;;4995438;28;20030;-68
2022/06/23 10:59:10;;;;;;;6.65;4.20;;;35.10;42.40;;;;;;4995607;28;20030;-68
2022/06/23 11:01:54;;;;;;;9.23;4.38;;;33.30;44.80;;;;;;4994583;28;20118;-68
2022/06/23 11:04:38;;;;;;;11.93;4.20;;;33.30;46.20;;;;;;4986886;28;20050;-68
2022/06/23 11:07:26;;;;;;;9.45;4.07;;;34.70;43.50;;;;;;4975979;28;20034;-67
2022/06/23 11:10:08;;;;;;;10.95;4.93;;;34.90;43.60;;;;;;4990909;28;20034;-68
2022/06/23 11:12:53;;;;;;;14.15;5.70;;;35.10;43.60;;;;;;4974642;28;20018;-67
2022/06/23 11:15:28;;;;;;;8.88;3.97;;;34.40;44.70;;;;;;4990957;28;20034;-67
2022/06/23 11:18:12;;;;;;;8.38;3.85;;;35.40;41.60;;;;;;4989867;28;20027;-68
2022/06/23 11:20:59;;;;;;;5.60;3.40;;;34.40;43.50;;;;;;4975944;28;20030;-67
2022/06/23 11:23:41;;;;;;;12.30;4.45;;;33.50;44.30;;;;;;5006715;28;20042;-68
2022/06/23 11:26:35;;;;;;;8.85;3.67;;;33.00;45.00;;;;;;4975021;28;20041;-68
2022/06/23 11:29:19;;;;;;;8.03;3.87;;;34.30;44.30;;;;;;4987460;28;20034;-67
2022/06/23 11:31:54;;;;;;;7.65;3.97;;;34.40;43.50;;;;;;4975004;28;20262;-67
2022/06/23 11:34:47;;;;;;;6.18;4.07;;;35.10;43.90;;;;;;4989870;28;20030;-67
2022/06/23 11:37:24;;;;;;;10.63;4.57;;;35.00;43.30;;;;;;4973534;28;20551;-68
2022/06/23 11:40:09;;;;;;;8.48;4.35;;;34.30;43.90;;;;;;4989484;28;20030;-67
2022/06/23 11:43:06;;;;;;;13.82;6.15;;;35.70;43.00;;;;;;4979711;28;20037;-67
2022/06/23 11:45:44;;;;;;;7.40;3.75;;;35.20;42.80;;;;;;5027183;28;20403;-67
2022/06/23 11:48:47;;;;;;;12.38;3.63;;;34.50;42.60;;;;;;4992289;28;20490;-67
2022/06/23 11:51:33;;;;;;;6.85;3.97;;;35.50;41.90;;;;;;4993565;28;20034;-67
2022/06/23 11:54:08;;;;;;;8.52;3.63;;;35.30;42.10;;;;;;4989065;28;20030;-66
2022/06/23 11:56:55;;;;;;;13.68;4.53;;;35.80;41.80;;;;;;4995928;28;20030;-68
2022/06/23 11:59:50;;;;;;;9.55;4.18;;;34.40;43.40;;;;;;5044120;28;20053;-68
2022/06/23 12:02:16;;;;;;;12.63;4.40;;;34.80;43.60;;;;;;4999819;28;20505;-68
2022/06/23 12:05:06;;;;;;;10.90;3.83;;;34.70;43.10;;;;;;5004348;28;20042;-67
2022/06/23 12:07:40;;;;;;;10.75;4.97;;;35.50;42.10;;;;;;5033431;28;20026;-67
2022/06/23 12:10:13;;;;;;;9.57;4.05;;;34.50;43.40;;;;;;4996953;28;20061;-68
2022/06/23 12:12:40;;;;;;;7.50;3.40;;;34.60;42.20;;;;;;4993769;28;20052;-68
2022/06/23 12:15:06;;;;;;;17.85;6.25;;;35.30;42.20;;;;;;5041620;28;20034;-68
2022/06/23 12:17:41;;;;;;;11.38;4.85;;;34.60;43.10;;;;;;5024210;28;20030;-68
2022/06/23 12:20:16;;;;;;;10.57;4.70;;;34.00;44.50;;;;;;5003677;28;20116;-71
2022/06/23 12:22:44;;;;;;;14.05;5.70;;;33.60;44.60;;;;;;5000856;28;20037;-67
2022/06/23 12:25:22;;;;;;;10.52;4.60;;;33.10;45.60;;;;;;4992160;28;20045;-67
2022/06/23 12:28:25;;;;;;;9.32;4.35;;;34.10;44.50;;;;;;4992314;28;20034;-68
2022/06/23 12:31:06;;;;;;;11.07;5.25;;;34.10;44.00;;;;;;4993369;28;20028;-67
2022/06/23 12:33:36;;;;;;;6.25;4.45;;;34.50;43.90;;;;;;4991825;28;20030;-67
2022/06/23 12:36:16;;;;;;;7.90;4.45;;;35.00;44.20;;;;;;4991921;28;20482;-68
2022/06/23 12:39:13;;;;;;;12.63;6.35;;;35.30;42.50;;;;;;4991808;28;20467;-68
2022/06/23 12:41:46;;;;;;;16.67;4.43;;;34.70;42.30;;;;;;5016608;28;20049;-67
2022/06/23 12:44:38;;;;;;;14.95;4.30;;;34.40;44.00;;;;;;4992914;28;20030;-67
2022/06/23 12:47:42;;;;;;;9.18;3.72;;;33.40;44.10;;;;;;5024466;28;20022;-67
2022/06/23 12:50:13;;;;;;;11.77;4.20;;;33.30;44.80;;;;;;4992594;28;20018;-67
2022/06/23 12:52:57;;;;;;;8.27;3.95;;;33.10;44.70;;;;;;4993134;28;20022;-69
2022/06/23 12:55:26;;;;;;;9.48;4.35;;;33.80;43.90;;;;;;4993393;28;20022;-67
2022/06/23 12:58:00;;;;;;;10.25;5.30;;;33.70;43.50;;;;;;4991686;28;20033;-67
2022/06/23 13:00:34;;;;;;;4.72;3.88;;;33.50;45.00;;;;;;4988219;28;20030;-67
2022/06/23 13:03:43;;;;;;;10.05;4.22;;;34.00;43.90;;;;;;4974472;28;20038;-67
2022/06/23 13:06:27;;;;;;;7.63;4.35;;;34.00;44.40;;;;;;4973326;28;20058;-67
2022/06/23 13:08:59;;;;;;;6.38;3.65;;;33.40;43.80;;;;;;4973416;28;20483;-67
2022/06/23 13:11:40;;;;;;;9.57;3.95;;;33.50;44.20;;;;;;4973128;28;20066;-67
2022/06/23 13:14:19;;;;;;;5.93;3.50;;;33.20;45.00;;;;;;4972135;28;20027;-67
2022/06/23 13:16:57;;;;;;;5.10;3.22;;;33.30;44.40;;;;;;4981010;28;20026;-67
2022/06/23 13:19:32;;;;;;;10.13;4.15;;;33.20;44.20;;;;;;5007604;28;20521;-67
2022/06/23 13:22:08;;;;;;;10.60;3.80;;;33.00;44.60;;;;;;5022395;28;20030;-67
2022/06/23 13:24:35;;;;;;;11.23;3.72;;;33.20;44.00;;;;;;5024255;28;20077;-67
2022/06/23 13:27:00;;;;;;;8.60;3.47;;;32.60;44.30;;;;;;5007617;28;20030;-67
2022/06/23 13:29:40;;;;;;;6.05;3.15;;;32.80;45.10;;;;;;4990044;28;20052;-67
2022/06/23 13:32:47;;;;;;;5.72;3.20;;;33.00;44.10;;;;;;4973311;28;20377;-67
2022/06/23 13:35:26;;;;;;;4.90;3.65;;;33.20;45.60;;;;;;4972295;28;20110;-67
2022/06/23 13:37:54;;;;;;;5.43;3.25;;;33.10;43.40;;;;;;4972456;28;20027;-67
2022/06/23 13:40:32;;;;;;;7.25;3.78;;;32.40;44.40;;;;;;4972131;28;20038;-67
2022/06/23 13:43:12;;;;;;;7.68;3.25;;;32.20;45.60;;;;;;4972134;28;20042;-67
2022/06/23 13:45:45;;;;;;;7.40;3.58;;;32.30;44.70;;;;;;4972257;28;20499;-68
2022/06/23 13:48:16;;;;;;;6.80;3.50;;;32.30;44.80;;;;;;4988253;28;20027;-66